Terminal Aerodrome Forecast
Issued by NWS Goodland, KS

Home | Current Version | Previous Version | Text Only | Print | Product List | Glossary On
Versions: 1 2 3 4 5 6 7 8 9 10 11 12 13 14 15 16 17 18
494
FTUS43 KGLD 191433 AAB
TAFGLD
TAF AMD
KGLD 191433Z 1915/2012 20013G21KT P6SM FEW250
     FM191900 20017G26KT P6SM SKC
     FM200100 23012KT P6SM SKC
     FM200400 33012KT P6SM SKC WS020/33040KT
     FM201000 35006KT P6SM SKC=

USA.gov is the U.S. government's official web portal to all federal, state and local government web resources and services.